Time;durP1;ratioP1;P1;durP2;ratioP2;P2;SDS_P1;SDS_P2;PMS_P1;PMS_P2;Temp;Humidity;BMP_temperature;BMP_pressure;BME280_temperature;BME280_humidity;BME280_pressure;Samples;Min_cycle;Max_cycle;Signal;HPM_P1;HPM_P2
2022/12/20 00:01:12;;;;;;;16.67;10.83;;;;;;;1.20;100.00;146365.06;5074947;28;20181;-62
2022/12/20 00:03:39;;;;;;;13.17;10.53;;;;;;;1.02;100.00;146319.91;5074873;28;20651;-62
2022/12/20 00:06:06;;;;;;;15.67;10.70;;;;;;;1.10;100.00;146340.00;5074813;28;20189;-61
2022/12/20 00:08:35;;;;;;;14.00;10.77;;;;;;;0.91;100.00;146292.34;5074791;28;20578;-62
2022/12/20 00:11:03;;;;;;;12.17;10.37;;;;;;;1.04;100.00;146324.94;5074674;28;20184;-62
2022/12/20 00:13:32;;;;;;;13.03;10.10;;;;;;;0.83;100.00;146273.53;5074420;28;20238;-63
2022/12/20 00:16:07;;;;;;;12.63;10.43;;;;;;;1.26;100.00;146380.13;5074444;28;20196;-63
2022/12/20 00:18:34;;;;;;;12.83;10.37;;;;;;;1.28;100.00;146385.13;5074770;28;20547;-63
2022/12/20 00:21:01;;;;;;;16.97;10.60;;;;;;;1.29;100.00;146387.63;5074559;28;20655;-63
2022/12/20 00:23:29;;;;;;;16.37;10.13;;;;;;;1.32;100.00;146395.16;5074606;28;20729;-61
2022/12/20 00:26:01;;;;;;;11.43;10.07;;;;;;;1.35;100.00;146402.72;5074632;28;20736;-62
2022/12/20 00:28:28;;;;;;;11.53;10.33;;;;;;;1.24;100.00;146375.09;5074540;28;20220;-62
2022/12/20 00:30:57;;;;;;;11.73;10.00;;;;;;;1.23;100.00;146372.56;5074120;28;20264;-61
2022/12/20 00:33:25;;;;;;;12.07;10.83;;;;;;;1.14;100.00;146350.03;5074348;28;20627;-62
2022/12/20 00:35:52;;;;;;;11.70;10.47;;;;;;;1.31;100.00;146392.69;5074047;28;20306;-61
2022/12/20 00:38:18;;;;;;;12.17;9.90;;;;;;;1.35;100.00;146401.44;5073892;28;20181;-61
2022/12/20 00:40:45;;;;;;;15.07;10.67;;;;;;;1.23;100.00;146371.34;5074237;28;20546;-62
2022/12/20 00:43:13;;;;;;;10.87;9.77;;;;;;;1.29;100.00;146387.63;5074203;28;20184;-61
2022/12/20 00:45:39;;;;;;;11.53;9.80;;;;;;;1.35;100.00;146402.72;5073757;28;20203;-62
2022/12/20 00:48:08;;;;;;;12.50;10.13;;;;;;;1.38;100.00;146410.22;5074009;28;20230;-62
2022/12/20 00:50:35;;;;;;;15.37;10.13;;;;;;;1.49;100.00;146436.53;5073851;28;20192;-62
2022/12/20 00:53:02;;;;;;;12.20;10.00;;;;;;;1.54;100.00;146449.09;5073517;28;20187;-61
2022/12/20 00:55:29;;;;;;;10.97;9.83;;;;;;;1.46;100.00;146427.75;5073606;28;20185;-61
2022/12/20 00:57:55;;;;;;;11.17;9.93;;;;;;;1.38;100.00;146410.22;5073686;28;20273;-62
2022/12/20 01:00:22;;;;;;;14.77;10.33;;;;;;;1.52;100.00;146442.84;5072831;28;20200;-61
2022/12/20 01:02:49;;;;;;;10.30;9.40;;;;;;;1.36;100.00;146405.19;5073410;28;20189;-61
2022/12/20 01:05:17;;;;;;;10.23;9.30;;;;;;;1.38;100.00;146408.97;5073429;28;20185;-61
2022/12/20 01:07:44;;;;;;;11.70;9.93;;;;;;;1.38;100.00;146410.22;5073726;28;20184;-61
2022/12/20 01:10:12;;;;;;;12.13;10.23;;;;;;;1.36;100.00;146405.19;5073428;28;20185;-63
2022/12/20 01:12:38;;;;;;;13.20;10.50;;;;;;;1.40;100.00;146412.75;5073714;28;20563;-63
2022/12/20 01:15:06;;;;;;;15.97;11.17;;;;;;;1.48;100.00;146434.06;5073659;28;20563;-63
2022/12/20 01:17:33;;;;;;;11.63;9.77;;;;;;;1.46;100.00;146429.03;5073892;28;20561;-61
2022/12/20 01:20:00;;;;;;;10.80;9.70;;;;;;;1.55;100.00;146450.34;5073152;28;20188;-61
2022/12/20 01:22:29;;;;;;;13.13;9.67;;;;;;;1.55;100.00;146451.59;5073289;28;20192;-61
2022/12/20 01:24:55;;;;;;;11.67;9.93;;;;;;;1.40;100.00;146412.75;5073376;28;20188;-62
2022/12/20 01:27:22;;;;;;;13.23;10.13;;;;;;;1.47;100.00;146430.28;5073056;28;20686;-62
2022/12/20 01:29:52;;;;;;;14.50;10.87;;;;;;;1.47;100.00;146431.53;5072928;28;20205;-61
2022/12/20 01:32:19;;;;;;;11.70;10.50;;;;;;;1.33;100.00;146396.41;5073199;28;20192;-62
2022/12/20 01:34:46;;;;;;;12.90;10.33;;;;;;;1.34;100.00;146400.19;5072887;28;20189;-61
2022/12/20 01:37:13;;;;;;;11.73;10.17;;;;;;;1.08;100.00;146334.97;5073404;28;20647;-61
2022/12/20 01:39:41;;;;;;;11.70;10.50;;;;;;;1.31;100.00;146392.69;5072921;28;20192;-61
2022/12/20 01:42:14;;;;;;;11.37;10.20;;;;;;;1.26;100.00;146380.13;5072959;28;20366;-61
2022/12/20 01:44:55;;;;;;;10.23;8.73;;;;;;;1.22;100.00;146370.09;5072904;28;20191;-61
2022/12/20 01:47:24;;;;;;;13.43;10.43;;;;;;;1.38;100.00;146410.22;5072727;28;20229;-61
2022/12/20 01:49:55;;;;;;;13.40;9.87;;;;;;;1.25;100.00;146377.59;5072864;28;20211;-62
2022/12/20 01:52:28;;;;;;;11.97;9.57;;;;;;;1.22;100.00;146370.09;5072516;28;20192;-62
2022/12/20 01:55:02;;;;;;;12.20;10.17;;;;;;;1.42;100.00;146419.00;5072735;28;20181;-61
2022/12/20 01:57:35;;;;;;;11.30;9.80;;;;;;;1.32;100.00;146395.16;5072590;28;20198;-63
2022/12/20 02:00:03;;;;;;;13.70;9.70;;;;;;;1.45;100.00;146425.25;5072247;28;20185;-63
2022/12/20 02:02:32;;;;;;;11.17;10.07;;;;;;;1.58;100.00;146457.88;5072223;28;20224;-63
2022/12/20 02:04:59;;;;;;;14.33;9.80;;;;;;;1.64;100.00;146472.94;5072178;28;20189;-62
2022/12/20 02:07:29;;;;;;;11.10;9.87;;;;;;;1.71;100.00;146490.47;5072285;28;20189;-62
2022/12/20 02:10:01;;;;;;;14.17;9.60;;;;;;;1.80;100.00;146513.06;5072418;28;20576;-62
2022/12/20 02:12:33;;;;;;;11.93;10.50;;;;;;;1.65;100.00;146476.72;5071436;28;20185;-62
2022/12/20 02:15:09;;;;;;;10.37;9.37;;;;;;;1.56;100.00;146452.88;5071937;28;20276;-62
2022/12/20 02:17:45;;;;;;;12.97;10.43;;;;;;;1.58;100.00;146459.13;5072195;28;20210;-62
2022/12/20 02:20:46;;;;;;;12.60;9.80;;;;;;;1.68;100.00;146482.97;5071863;28;20184;-61
2022/12/20 02:23:35;;;;;;;12.40;9.00;;;;;;;1.61;100.00;146466.63;5072015;28;20241;-61
2022/12/20 02:26:18;;;;;;;11.63;10.43;;;;;;;1.66;100.00;146477.94;5071691;28;20236;-63
2022/12/20 02:29:06;;;;;;;9.63;8.73;;;;;;;1.49;100.00;146435.28;5072198;28;20697;-61
2022/12/20 02:31:40;;;;;;;10.90;8.87;;;;;;;1.36;100.00;146403.91;5072007;28;20234;-62
2022/12/20 02:34:10;;;;;;;16.50;10.30;;;;;;;1.50;100.00;146437.78;5070753;28;20189;-61
2022/12/20 02:36:39;;;;;;;12.87;10.10;;;;;;;1.47;100.00;146431.53;5071970;28;20192;-61
2022/12/20 02:39:06;;;;;;;12.90;9.30;;;;;;;1.33;100.00;146396.41;5071908;28;20280;-61
2022/12/20 02:41:39;;;;;;;8.87;8.03;;;;;;;1.50;100.00;146437.78;5071969;28;20583;-62
2022/12/20 02:47:00;;;;;;;11.80;8.57;;;;;;;1.52;100.00;146442.84;5071562;28;20552;-61
2022/12/20 02:49:31;;;;;;;8.23;7.57;;;;;;;1.67;100.00;146480.44;5071225;28;20205;-63
2022/12/20 02:52:00;;;;;;;9.50;8.73;;;;;;;1.78;100.00;146509.28;5071232;28;20184;-63
2022/12/20 02:54:29;;;;;;;9.10;8.23;;;;;;;1.79;100.00;146510.56;5071408;28;20266;-61
2022/12/20 02:57:00;;;;;;;8.90;8.10;;;;;;;1.88;100.00;146531.88;5071688;28;20260;-61
2022/12/20 02:59:32;;;;;;;13.73;9.70;;;;;;;1.88;100.00;146531.88;5071799;28;20180;-62
2022/12/20 03:02:01;;;;;;;9.60;8.63;;;;;;;1.92;100.00;146543.19;5071256;28;20263;-61
2022/12/20 03:04:32;;;;;;;9.40;8.43;;;;;;;1.99;100.00;146560.78;5071430;28;20189;-63
2022/12/20 03:07:03;;;;;;;10.57;8.87;;;;;;;1.78;100.00;146508.09;5071183;28;20196;-61
2022/12/20 03:09:32;;;;;;;9.27;8.47;;;;;;;1.61;100.00;146465.41;5071508;28;20236;-60
2022/12/20 03:11:59;;;;;;;10.57;7.70;;;;;;;1.70;100.00;146487.97;5071138;28;20180;-62
2022/12/20 03:14:26;;;;;;;12.27;9.07;;;;;;;1.71;100.00;146491.75;5071240;28;20540;-62
2022/12/20 03:16:53;;;;;;;10.70;7.80;;;;;;;1.70;100.00;146487.97;5071085;28;20193;-61
2022/12/20 03:19:24;;;;;;;12.20;9.03;;;;;;;1.81;100.00;146515.59;5071073;28;20180;-61
2022/12/20 03:21:51;;;;;;;9.53;7.63;;;;;;;1.78;100.00;146508.09;5070918;28;20200;-61
2022/12/20 03:24:18;;;;;;;9.33;8.53;;;;;;;1.89;100.00;146535.66;5070888;28;20204;-62
2022/12/20 03:26:45;;;;;;;8.93;8.30;;;;;;;1.97;100.00;146555.75;5071222;28;20239;-61
2022/12/20 03:29:12;;;;;;;9.77;8.77;;;;;;;2.00;100.00;146563.25;5071005;28;20201;-61
2022/12/20 03:31:39;;;;;;;9.77;8.83;;;;;;;2.10;100.00;146587.13;5071048;28;20184;-61
2022/12/20 03:34:06;;;;;;;9.27;8.47;;;;;;;1.96;100.00;146551.97;5070823;28;20192;-61
2022/12/20 03:36:34;;;;;;;13.47;9.27;;;;;;;2.05;100.00;146575.81;5071306;28;20204;-61
2022/12/20 03:39:02;;;;;;;12.23;8.23;;;;;;;1.93;100.00;146545.69;5070831;28;20210;-61
2022/12/20 03:41:28;;;;;;;9.97;8.93;;;;;;;1.94;100.00;146548.22;5070884;28;20193;-61
2022/12/20 03:43:55;;;;;;;11.47;9.27;;;;;;;1.75;100.00;146500.50;5070909;28;20185;-62
2022/12/20 03:46:22;;;;;;;11.40;8.93;;;;;;;1.84;100.00;146524.38;5070861;28;20184;-62
2022/12/20 03:48:49;;;;;;;13.83;9.80;;;;;;;1.90;100.00;146536.94;5071069;28;20209;-61
2022/12/20 03:51:16;;;;;;;17.17;8.73;;;;;;;1.85;100.00;146525.63;5071098;28;20560;-62
2022/12/20 03:53:44;;;;;;;11.00;9.30;;;;;;;1.92;100.00;146541.91;5071224;28;20636;-61
2022/12/20 03:56:11;;;;;;;12.10;8.83;;;;;;;2.04;100.00;146572.03;5070772;28;20189;-61
2022/12/20 03:58:39;;;;;;;11.47;9.33;;;;;;;1.86;100.00;146528.16;5070767;28;20200;-62
2022/12/20 04:01:17;;;;;;;13.23;9.30;;;;;;;1.90;100.00;146538.19;5070707;28;20188;-62
2022/12/20 04:03:44;;;;;;;12.23;9.70;;;;;;;1.87;100.00;146530.63;5070637;28;20198;-61
2022/12/20 04:06:11;;;;;;;15.80;10.77;;;;;;;2.02;100.00;146567.03;5070714;28;20192;-61
2022/12/20 04:08:38;;;;;;;11.23;9.07;;;;;;;2.02;100.00;146568.28;5070964;28;20556;-61
2022/12/20 04:11:18;;;;;;;10.80;9.70;;;;;;;1.97;100.00;146554.47;5070627;28;20196;-62
2022/12/20 04:13:45;;;;;;;15.00;9.80;;;;;;;1.86;100.00;146526.88;5070700;28;20173;-63
2022/12/20 04:16:13;;;;;;;11.60;10.37;;;;;;;1.92;100.00;146541.91;5070580;28;20188;-61
2022/12/20 04:18:40;;;;;;;11.23;10.10;;;;;;;1.87;100.00;146530.63;5070567;28;20200;-61
2022/12/20 04:21:07;;;;;;;17.10;10.27;;;;;;;1.91;100.00;146539.44;5070629;28;20200;-61
2022/12/20 04:23:35;;;;;;;15.70;10.13;;;;;;;1.92;100.00;146543.19;5070551;28;20207;-61
2022/12/20 04:26:02;;;;;;;18.37;9.77;;;;;;;1.93;100.00;146545.69;5070718;28;20603;-61
2022/12/20 04:28:30;;;;;;;12.20;10.40;;;;;;;1.91;100.00;146540.66;5070651;28;20192;-61
2022/12/20 04:30:58;;;;;;;10.97;9.87;;;;;;;1.98;100.00;146558.25;5070293;28;20227;-62
2022/12/20 04:33:25;;;;;;;10.77;9.37;;;;;;;1.96;100.00;146551.97;5070396;28;20272;-61
2022/12/20 04:35:52;;;;;;;14.77;9.73;;;;;;;2.10;100.00;146587.13;5071944;28;20196;-61
2022/12/20 04:38:20;;;;;;;14.37;10.27;;;;;;;1.79;100.00;146510.56;5073962;28;20181;-61
2022/12/20 04:40:49;;;;;;;12.27;10.17;;;;;;;1.92;100.00;146543.19;5074282;28;20193;-62
2022/12/20 04:43:16;;;;;;;11.70;10.53;;;;;;;1.95;100.00;146550.75;5074150;28;20644;-61
2022/12/20 04:45:47;;;;;;;14.17;10.33;;;;;;;2.01;100.00;146565.78;5073909;28;20203;-62
2022/12/20 04:48:15;;;;;;;23.07;11.97;;;;;;;2.09;100.00;146585.84;5074070;28;20196;-63
2022/12/20 04:50:42;;;;;;;11.73;10.30;;;;;;;2.11;100.00;146590.91;5073708;28;20224;-62
2022/12/20 04:55:53;;;;;;;13.03;10.73;;;;;;;1.93;100.00;146545.69;5073731;28;20225;-62
2022/12/20 04:58:20;;;;;;;22.70;11.17;;;;;;;1.90;100.00;146538.19;5073939;28;20559;-62
2022/12/20 05:00:48;;;;;;;13.83;10.33;;;;;;;1.83;100.00;146520.59;5073747;28;20275;-62
2022/12/20 05:03:15;;;;;;;14.27;9.90;;;;;;;1.81;100.00;146516.84;5073785;28;20212;-62
2022/12/20 05:05:42;;;;;;;14.90;9.43;;;;;;;1.83;100.00;146520.59;5073611;28;20200;-61
2022/12/20 05:08:09;;;;;;;10.93;9.83;;;;;;;1.81;100.00;146515.59;5073514;28;20195;-62
2022/12/20 05:10:36;;;;;;;10.93;9.60;;;;;;;1.73;100.00;146496.78;5073703;28;20709;-62
2022/12/20 05:13:02;;;;;;;11.30;10.10;;;;;;;1.67;100.00;146480.44;5073274;28;20217;-63
2022/12/20 05:15:30;;;;;;;11.70;9.83;;;;;;;1.88;100.00;146533.13;5073565;28;20564;-62
2022/12/20 05:17:59;;;;;;;11.53;9.63;;;;;;;1.90;100.00;146536.94;5073506;28;20185;-61
2022/12/20 05:20:26;;;;;;;14.33;9.97;;;;;;;1.98;100.00;146557.00;5073085;28;20662;-61
2022/12/20 05:28:33;;;;;;;13.43;10.10;;;;;;;1.90;100.00;146538.19;5072929;28;20204;-62
2022/12/20 05:31:00;;;;;;;15.43;9.90;;;;;;;1.77;100.00;146505.56;5072814;28;20295;-62
2022/12/20 05:33:29;;;;;;;14.93;9.53;;;;;;;1.91;100.00;146540.66;5073218;28;20181;-62
2022/12/20 05:35:56;;;;;;;13.57;9.00;;;;;;;1.95;100.00;146550.75;5072910;28;20204;-61
2022/12/20 05:38:23;;;;;;;14.17;9.93;;;;;;;1.95;100.00;146550.75;5072945;28;20185;-61
2022/12/20 05:40:51;;;;;;;13.73;9.33;;;;;;;1.99;100.00;146560.78;5073189;28;20655;-61
2022/12/20 05:43:19;;;;;;;16.80;10.77;;;;;;;1.80;100.00;146514.34;5073291;28;20270;-61
2022/12/20 05:45:47;;;;;;;19.67;10.40;;;;;;;1.79;100.00;146510.56;5072679;28;20563;-61
2022/12/20 05:48:14;;;;;;;17.13;10.27;;;;;;;1.72;100.00;146493.00;5072628;28;20185;-60
2022/12/20 05:50:44;;;;;;;16.13;9.80;;;;;;;1.74;100.00;146499.25;5072871;28;20572;-62
2022/12/20 05:53:11;;;;;;;17.00;10.20;;;;;;;1.82;100.00;146519.31;5072878;28;20200;-60
2022/12/20 05:55:39;;;;;;;21.63;10.30;;;;;;;1.84;100.00;146523.09;5072791;28;20185;-61
2022/12/20 05:58:07;;;;;;;21.00;10.80;;;;;;;1.90;100.00;146538.19;5072919;28;20528;-60
2022/12/20 06:00:34;;;;;;;15.33;9.57;;;;;;;2.03;100.00;146570.81;5072758;28;20180;-59
2022/12/20 06:03:01;;;;;;;11.87;10.23;;;;;;;1.96;100.00;146553.22;5072681;28;20192;-60
2022/12/20 06:05:29;;;;;;;30.80;10.93;;;;;;;1.96;100.00;146551.97;5072597;28;20248;-60
2022/12/20 06:07:58;;;;;;;20.60;10.77;;;;;;;2.05;100.00;146575.81;5072874;28;20593;-60
2022/12/20 06:10:24;;;;;;;9.90;9.00;;;;;;;2.08;100.00;146582.13;5072691;28;20598;-61
2022/12/20 06:12:52;;;;;;;19.40;10.00;;;;;;;2.09;100.00;146585.84;5072432;28;20188;-61
2022/12/20 06:15:19;;;;;;;16.07;9.73;;;;;;;2.12;100.00;146593.38;5072363;28;20280;-62
2022/12/20 06:17:46;;;;;;;10.93;8.83;;;;;;;2.28;100.00;146633.56;5072247;28;20215;-61
2022/12/20 06:20:13;;;;;;;10.63;8.90;;;;;;;2.08;100.00;146583.31;5072542;28;20193;-61
2022/12/20 06:22:40;;;;;;;9.80;8.80;;;;;;;2.24;100.00;146622.28;5072627;28;20200;-62
2022/12/20 06:25:11;;;;;;;15.23;9.13;;;;;;;2.39;100.00;146658.66;5071987;28;20199;-60
2022/12/20 06:27:38;;;;;;;31.83;12.40;;;;;;;2.47;100.00;146678.72;5070624;28;20779;-61
2022/12/20 06:30:06;;;;;;;23.93;12.73;;;;;;;2.59;100.00;146708.91;5071928;28;20209;-61
2022/12/20 06:32:34;;;;;;;29.10;12.20;;;;;;;2.40;100.00;146662.44;5072387;28;20593;-61
2022/12/20 06:35:01;;;;;;;19.40;12.27;;;;;;;2.33;100.00;146643.59;5072208;28;20602;-62
2022/12/20 06:37:28;;;;;;;16.50;9.53;;;;;;;2.23;100.00;146619.75;5071583;28;20199;-62
2022/12/20 06:39:55;;;;;;;17.10;9.57;;;;;;;2.34;100.00;146646.09;5071666;28;20177;-62
2022/12/20 06:42:24;;;;;;;14.17;10.83;;;;;;;2.29;100.00;146636.03;5071552;28;20199;-62
2022/12/20 06:44:51;;;;;;;10.83;9.77;;;;;;;2.44;100.00;146672.47;5071629;28;20239;-62
2022/12/20 06:47:17;;;;;;;11.43;9.70;;;;;;;2.49;100.00;146683.78;5071688;28;20195;-62
2022/12/20 06:49:44;;;;;;;10.60;9.50;;;;;;;2.22;100.00;146618.50;5071320;28;20212;-61
2022/12/20 06:52:11;;;;;;;13.97;9.47;;;;;;;2.56;100.00;146701.34;5071388;28;20230;-63
2022/12/20 06:54:38;;;;;;;13.60;11.37;;;;;;;2.57;100.00;146705.13;5071316;28;20195;-62
2022/12/20 06:57:05;;;;;;;23.10;11.60;;;;;;;2.71;100.00;146739.03;5071469;28;20232;-62
2022/12/20 06:59:34;;;;;;;19.33;11.27;;;;;;;2.73;100.00;146745.28;5070755;28;20184;-62
2022/12/20 07:02:01;;;;;;;10.43;9.33;;;;;;;2.91;100.00;146789.25;5069775;28;20188;-62
2022/12/20 07:04:28;;;;;;;20.67;10.77;;;;;;;3.12;100.00;146840.75;5070995;28;20212;-61
2022/12/20 07:06:55;;;;;;;22.27;11.07;;;;;;;3.38;100.00;146904.81;5071233;28;20632;-63
2022/12/20 07:09:23;;;;;;;21.80;10.20;;;;;;;3.53;100.00;146943.75;5070976;28;20227;-61
2022/12/20 07:11:50;;;;;;;23.10;11.60;;;;;;;3.74;100.00;146994.00;5071189;28;20575;-61
2022/12/20 07:14:17;;;;;;;19.43;10.57;;;;;;;4.21;100.00;147110.91;5070881;28;20185;-62
2022/12/20 07:16:46;;;;;;;20.77;11.23;;;;;;;5.14;100.00;147343.63;5071598;28;20192;-61
2022/12/20 07:19:13;;;;;;;15.97;9.80;;;;;;;6.20;100.00;147606.78;5070822;28;20184;-62
2022/12/20 07:21:39;;;;;;;17.00;9.67;;;;;;;5.86;100.00;147523.66;5071347;28;20642;-62
2022/12/20 07:24:07;;;;;;;12.43;9.77;;;;;;;7.01;100.00;147808.38;5071021;28;20185;-62
2022/12/20 07:26:35;;;;;;;12.40;10.40;;;;;;;8.37;100.00;148147.63;5070766;28;20683;-63
2022/12/20 07:29:02;;;;;;;56.50;12.80;;;;;;;8.31;100.00;148132.53;5070804;28;20253;-62
2022/12/20 07:31:28;;;;;;;18.77;9.87;;;;;;;8.26;100.00;148122.38;5070809;28;20339;-63
2022/12/20 07:33:57;;;;;;;17.10;11.00;;;;;;;9.11;100.00;148333.19;5071316;28;20556;-63
2022/12/20 07:36:24;;;;;;;9.83;8.87;;;;;;;9.04;100.00;148315.50;5072026;28;20665;-64
2022/12/20 07:38:50;;;;;;;13.27;8.87;;;;;;;10.27;96.95;148623.75;5071109;28;20533;-65
2022/12/20 07:41:18;;;;;;;14.23;9.40;;;;;;;10.76;87.43;148745.09;5070822;28;20181;-63
2022/12/20 07:43:45;;;;;;;10.27;9.40;;;;;;;10.05;88.92;148569.41;5070750;28;20275;-63
2022/12/20 07:46:16;;;;;;;10.80;9.13;;;;;;;11.07;83.23;148823.50;5071052;28;20184;-64
2022/12/20 07:48:44;;;;;;;8.83;8.23;;;;;;;10.94;76.42;148790.63;5070882;28;20184;-63
2022/12/20 07:51:17;;;;;;;9.27;8.47;;;;;;;11.86;75.02;149022.16;5070590;28;20634;-64
2022/12/20 07:53:48;;;;;;;12.07;8.87;;;;;;;12.18;74.52;149100.56;5071186;28;20656;-64
2022/12/20 07:56:17;;;;;;;9.10;8.23;;;;;;;12.19;69.02;149103.13;5070925;28;20687;-63
2022/12/20 07:58:45;;;;;;;8.70;8.10;;;;;;;12.04;66.90;149065.16;5071036;28;20556;-63
2022/12/20 08:01:13;;;;;;;9.77;9.07;;;;;;;10.92;78.05;148785.56;5070747;28;20279;-64
2022/12/20 08:03:44;;;;;;;13.23;9.80;;;;;;;11.61;74.66;148957.56;5070850;28;20208;-64
2022/12/20 08:06:14;;;;;;;9.67;8.70;;;;;;;11.88;73.17;149025.97;5070807;28;20578;-63
2022/12/20 08:08:46;;;;;;;10.57;9.60;;;;;;;12.67;67.33;149224.66;5070690;28;20276;-64
2022/12/20 08:11:14;;;;;;;9.83;9.13;;;;;;;12.51;65.48;149182.88;5072541;28;20595;-64
2022/12/20 08:13:42;;;;;;;9.00;8.30;;;;;;;11.55;73.37;148942.38;5073499;28;20220;-64
2022/12/20 08:16:08;;;;;;;10.87;9.00;;;;;;;12.62;68.92;149210.72;5075356;28;20195;-65
2022/12/20 08:18:36;;;;;;;10.13;9.37;;;;;;;13.05;65.18;149319.63;5075310;28;20181;-65
2022/12/20 08:21:03;;;;;;;9.10;8.60;;;;;;;12.56;65.10;149196.78;5074237;28;20184;-63
2022/12/20 08:23:32;;;;;;;9.10;8.47;;;;;;;13.73;60.76;149489.44;5074263;28;20193;-63
2022/12/20 08:26:01;;;;;;;8.83;8.33;;;;;;;15.40;56.47;149909.16;5074200;28;20323;-64
2022/12/20 08:28:27;;;;;;;13.37;9.33;;;;;;;16.06;52.65;150072.94;5075610;28;20546;-64
2022/12/20 08:31:01;;;;;;;11.27;9.43;;;;;;;16.79;50.25;150257.13;5076063;28;20208;-64
2022/12/20 08:33:30;;;;;;;9.40;8.90;;;;;;;17.62;47.40;150465.53;5081195;28;20183;-61
2022/12/20 08:35:58;;;;;;;9.27;8.37;;;;;;;15.56;49.03;149947.31;5080157;28;20203;-63
2022/12/20 08:38:26;;;;;;;8.50;7.80;;;;;;;16.04;50.15;150067.91;5092579;28;20642;-63
2022/12/20 08:40:55;;;;;;;9.67;8.77;;;;;;;15.72;50.11;149989.19;5094820;28;20204;-63
2022/12/20 08:43:22;;;;;;;9.63;8.80;;;;;;;16.32;49.40;150140.25;5094201;28;20207;-63
2022/12/20 08:45:53;;;;;;;9.13;8.43;;;;;;;16.32;47.97;150138.97;5094330;28;20523;-62
2022/12/20 08:48:20;;;;;;;9.40;8.67;;;;;;;16.53;47.47;150191.03;5094474;28;20512;-63
2022/12/20 08:50:48;;;;;;;8.97;8.43;;;;;;;16.46;47.95;150174.53;5076330;28;20300;-63
2022/12/20 08:53:14;;;;;;;10.47;8.10;;;;;;;15.39;49.31;149905.41;5082324;28;20184;-62
2022/12/20 08:55:44;;;;;;;8.83;8.07;;;;;;;13.41;56.09;149408.38;5086737;28;20195;-61
2022/12/20 08:58:13;;;;;;;9.20;8.30;;;;;;;15.55;51.59;149946.03;5093874;28;20258;-61
2022/12/20 09:00:39;;;;;;;8.63;7.63;;;;;;;15.57;49.73;149951.13;5094239;28;20207;-62
2022/12/20 09:03:07;;;;;;;10.63;9.55;;;;;;;15.60;52.36;149957.47;5092963;28;20498;-61
2022/12/20 09:05:34;;;;;;;18.93;9.93;;;;;;;16.36;49.31;150149.13;5094080;28;20554;-60
2022/12/20 09:08:02;;;;;;;8.67;7.87;;;;;;;18.28;46.49;150632.06;5094238;28;20606;-61
2022/12/20 09:10:29;;;;;;;10.33;8.27;;;;;;;18.19;43.62;150610.47;5093296;28;20210;-61
2022/12/20 09:12:56;;;;;;;9.60;8.80;;;;;;;18.73;43.44;150744.00;5094306;28;20268;-60
2022/12/20 09:15:26;;;;;;;19.83;9.20;;;;;;;19.34;42.93;150899.25;5093825;28;20194;-61
2022/12/20 09:17:54;;;;;;;9.37;7.83;;;;;;;19.09;42.88;150835.63;5094059;28;20573;-61
2022/12/20 09:20:21;;;;;;;12.77;8.68;;;;;;;20.26;41.17;151130.94;5093640;28;20555;-61
2022/12/20 09:22:48;;;;;;;8.35;7.95;;;;;;;21.25;39.17;151380.72;5093030;28;20184;-61
2022/12/20 09:25:15;;;;;;;9.02;7.78;;;;;;;21.27;38.38;151385.78;5091862;28;20180;-61
2022/12/20 09:27:44;;;;;;;8.35;7.85;;;;;;;20.73;38.48;151248.16;5093113;28;20293;-61
2022/12/20 09:30:11;;;;;;;9.27;8.40;;;;;;;19.43;40.14;150920.94;5093082;28;20180;-60
2022/12/20 09:32:39;;;;;;;9.55;8.82;;;;;;;19.61;40.61;150968.00;5093672;28;20240;-60
2022/12/20 09:35:07;;;;;;;8.83;7.70;;;;;;;18.20;42.37;150611.75;5093220;28;20563;-60
2022/12/20 09:37:34;;;;;;;9.07;8.33;;;;;;;17.67;43.55;150478.25;5092944;28;20194;-60
2022/12/20 09:40:01;;;;;;;8.90;8.13;;;;;;;18.00;43.83;150562.13;5093426;28;20195;-60
2022/12/20 09:42:30;;;;;;;8.47;7.97;;;;;;;18.12;43.95;150592.63;5093189;28;20199;-60
2022/12/20 09:45:03;;;;;;;17.67;9.03;;;;;;;17.65;44.68;150474.41;5092886;28;20249;-60
2022/12/20 09:47:34;;;;;;;8.40;7.70;;;;;;;17.31;45.48;150389.22;5081611;28;20188;-62
2022/12/20 09:50:05;;;;;;;7.77;7.03;;;;;;;16.35;47.55;150147.84;5072612;28;20616;-62
2022/12/20 09:53:10;;;;;;;7.93;7.43;;;;;;;16.13;49.53;150091.97;5072234;28;20240;-62
2022/12/20 09:55:43;;;;;;;8.67;8.13;;;;;;;15.13;51.19;149839.41;5030282;28;20264;-62
2022/12/20 09:58:30;;;;;;;12.87;7.93;;;;;;;13.90;57.96;149532.53;5067519;28;20655;-62
2022/12/20 10:00:58;;;;;;;6.57;5.97;;;;;;;12.97;68.55;149299.38;5072546;28;20554;-62
2022/12/20 10:03:32;;;;;;;6.03;5.60;;;;;;;12.28;76.04;149127.19;5073967;28;20201;-61
2022/12/20 10:06:06;;;;;;;9.60;8.57;;;;;;;12.93;74.98;149289.25;5076758;28;20192;-61
2022/12/20 10:08:45;;;;;;;16.73;11.63;;;;;;;12.20;77.13;149106.94;5072464;28;20643;-61
2022/12/20 10:11:26;;;;;;;7.57;6.20;;;;;;;11.62;85.85;148961.38;5073297;28;20204;-61
2022/12/20 10:14:04;;;;;;;6.03;5.67;;;;;;;11.46;91.63;148922.13;5072368;28;20532;-61
2022/12/20 10:16:42;;;;;;;20.70;10.63;;;;;;;12.91;78.95;149282.88;5072052;28;20187;-60
2022/12/20 10:19:27;;;;;;;25.50;15.00;;;;;;;13.25;70.42;149370.34;5072635;28;20189;-61
2022/12/20 10:22:07;;;;;;;21.17;13.90;;;;;;;13.13;71.52;149339.94;5072370;28;20196;-61
2022/12/20 10:24:35;;;;;;;21.63;13.87;;;;;;;12.85;71.38;149267.72;5071339;28;20200;-61
2022/12/20 10:27:12;;;;;;;23.60;14.63;;;;;;;13.46;72.00;149421.00;5071950;28;20251;-64
2022/12/20 10:29:42;;;;;;;22.30;15.37;;;;;;;14.84;62.48;149768.41;5072043;28;20188;-64
2022/12/20 10:32:16;;;;;;;18.00;13.93;;;;;;;16.23;55.00;150116.13;5071692;28;20204;-63
2022/12/20 10:34:51;;;;;;;15.73;14.23;;;;;;;14.15;61.23;149594.63;5071067;28;20183;-64
2022/12/20 10:37:19;;;;;;;19.37;13.47;;;;;;;13.46;66.21;149422.28;5079788;28;20191;-64
2022/12/20 10:39:49;;;;;;;21.17;13.97;;;;;;;13.19;69.55;149353.91;5091871;28;20189;-64
2022/12/20 10:42:30;;;;;;;26.50;14.80;;;;;;;14.07;66.40;149575.63;5092252;28;20185;-64
2022/12/20 10:44:58;;;;;;;22.83;14.67;;;;;;;14.39;64.41;149655.50;5091699;28;20184;-65
2022/12/20 10:47:36;;;;;;;21.27;15.63;;;;;;;14.93;59.13;149789.97;5091807;28;20212;-65
2022/12/20 10:50:13;;;;;;;16.30;13.97;;;;;;;15.30;58.59;149882.56;5091580;28;20192;-65
2022/12/20 10:52:41;;;;;;;23.97;14.93;;;;;;;14.86;59.38;149773.44;5091695;28;20203;-65
2022/12/20 10:55:33;;;;;;;18.17;13.93;;;;;;;15.04;60.07;149817.84;5091381;28;20192;-65
2022/12/20 10:58:03;;;;;;;25.33;14.67;;;;;;;15.92;56.80;150039.94;5091877;28;20188;-64
2022/12/20 11:00:31;;;;;;;19.70;13.87;;;;;;;16.76;52.12;150250.75;5092548;28;20194;-64
2022/12/20 11:03:14;;;;;;;15.17;13.53;;;;;;;16.73;52.98;150243.16;5090260;28;20180;-65
2022/12/20 11:05:52;;;;;;;15.77;13.03;;;;;;;17.83;50.32;150518.91;5077128;28;20212;-64
2022/12/20 11:08:23;;;;;;;18.47;14.83;;;;;;;17.85;48.29;150522.72;5089046;28;20191;-65
2022/12/20 11:10:50;;;;;;;17.20;15.33;;;;;;;17.56;48.47;150451.53;5091013;28;20192;-66
2022/12/20 11:13:24;;;;;;;25.57;16.27;;;;;;;16.60;51.55;150210.13;5088072;28;20192;-65
2022/12/20 11:15:55;;;;;;;26.17;17.07;;;;;;;16.55;51.38;150196.13;5091590;28;20276;-64
2022/12/20 11:18:32;;;;;;;31.07;15.43;;;;;;;15.53;54.48;149941.00;5089629;28;20292;-65
2022/12/20 11:21:11;;;;;;;24.57;15.67;;;;;;;15.81;55.08;150012.03;5086125;28;20207;-65
2022/12/20 11:23:43;;;;;;;22.70;16.30;;;;;;;15.13;55.99;149840.69;5087202;28;20659;-65
2022/12/20 11:26:25;;;;;;;38.77;16.20;;;;;;;15.38;57.30;149902.84;5081333;28;20239;-65
2022/12/20 11:29:06;;;;;;;27.83;14.03;;;;;;;15.45;56.92;149921.88;5071896;28;20595;-64
2022/12/20 11:31:44;;;;;;;35.33;15.27;;;;;;;14.56;59.78;149697.34;5071364;28;20293;-65
2022/12/20 11:34:37;;;;;;;55.00;16.10;;;;;;;13.32;67.88;149386.84;5071325;28;20215;-66
2022/12/20 11:37:19;;;;;;;4.80;4.43;;;;;;;10.19;100.00;148603.53;5072131;28;20613;-64
2022/12/20 11:40:04;;;;;;;5.33;4.73;;;;;;;9.43;100.00;148412.72;5071309;28;20188;-65